sensor_id;sensor_type;location;lat;lon;timestamp;pressure;altitude;pressure_sealevel;temperature;humidity
39823;BME280;25499;53.958;10.970;2022-07-10T05:57:03;101833.16;;;13.84;76.19
39823;BME280;25499;53.958;10.970;2022-07-10T05:59:33;101843.63;;;14.13;75.66
39823;BME280;25499;53.958;10.970;2022-07-10T06:01:58;101842.75;;;14.29;73.76
39823;BME280;25499;53.958;10.970;2022-07-10T06:04:23;101844.47;;;14.41;74.09
39823;BME280;25499;53.958;10.970;2022-07-10T06:06:49;101842.75;;;14.12;73.52
39823;BME280;25499;53.958;10.970;2022-07-10T06:09:14;101846.25;;;14.17;74.24
39823;BME280;25499;53.958;10.970;2022-07-10T06:11:39;101836.66;;;14.26;73.08
39823;BME280;25499;53.958;10.970;2022-07-10T06:14:07;101838.34;;;14.47;71.91
39823;BME280;25499;53.958;10.970;2022-07-10T06:16:32;101834.78;;;14.86;71.38
39823;BME280;25499;53.958;10.970;2022-07-10T06:18:57;101833.00;;;14.90;72.09
39823;BME280;25499;53.958;10.970;2022-07-10T06:21:23;101820.94;;;14.10;71.98
39823;BME280;25499;53.958;10.970;2022-07-10T06:23:48;101844.47;;;14.49;73.07
39823;BME280;25499;53.958;10.970;2022-07-10T06:26:14;101839.22;;;14.69;72.43
39823;BME280;25499;53.958;10.970;2022-07-10T06:28:40;101846.13;;;14.95;72.56
39823;BME280;25499;53.958;10.970;2022-07-10T06:31:05;101834.88;;;14.65;71.86
39823;BME280;25499;53.958;10.970;2022-07-10T06:33:31;101849.66;;;14.84;72.46
39823;BME280;25499;53.958;10.970;2022-07-10T06:35:57;101835.66;;;14.87;71.16
39823;BME280;25499;53.958;10.970;2022-07-10T06:38:23;101842.56;;;15.05;70.54
39823;BME280;25499;53.958;10.970;2022-07-10T06:40:49;101833.66;;;15.41;69.31
39823;BME280;25499;53.958;10.970;2022-07-10T06:43:15;101825.06;;;15.16;68.15
39823;BME280;25499;53.958;10.970;2022-07-10T06:45:40;101829.50;;;14.96;68.51
39823;BME280;25499;53.958;10.970;2022-07-10T06:48:06;101827.88;;;14.61;69.17
39823;BME280;25499;53.958;10.970;2022-07-10T06:50:32;101821.75;;;14.37;70.11
39823;BME280;25499;53.958;10.970;2022-07-10T06:53:00;101822.66;;;14.28;69.85
39823;BME280;25499;53.958;10.970;2022-07-10T06:55:26;101825.28;;;14.33;68.97
39823;BME280;25499;53.958;10.970;2022-07-10T06:57:51;101815.66;;;14.29;68.26
39823;BME280;25499;53.958;10.970;2022-07-10T07:00:17;101814.78;;;14.22;68.10
39823;BME280;25499;53.958;10.970;2022-07-10T07:02:42;101827.03;;;14.25;69.60
39823;BME280;25499;53.958;10.970;2022-07-10T07:05:08;101827.03;;;14.18;67.88
39823;BME280;25499;53.958;10.970;2022-07-10T07:07:34;101833.13;;;14.51;68.79
39823;BME280;25499;53.958;10.970;2022-07-10T07:09:59;101840.06;;;14.77;69.28
39823;BME280;25499;53.958;10.970;2022-07-10T07:12:25;101845.34;;;14.65;69.67
39823;BME280;25499;53.958;10.970;2022-07-10T07:14:50;101847.97;;;14.65;68.24
39823;BME280;25499;53.958;10.970;2022-07-10T07:17:16;101833.13;;;14.44;69.64
39823;BME280;25499;53.958;10.970;2022-07-10T07:19:48;101843.63;;;14.17;69.27
39823;BME280;25499;53.958;10.970;2022-07-10T07:22:32;101854.97;;;14.13;69.38
39823;BME280;25499;53.958;10.970;2022-07-10T07:25:16;101852.34;;;14.21;70.32
39823;BME280;25499;53.958;10.970;2022-07-10T07:27:41;101852.38;;;14.09;69.91
39823;BME280;25499;53.958;10.970;2022-07-10T07:30:10;101842.78;;;14.15;70.11
39823;BME280;25499;53.958;10.970;2022-07-10T07:32:36;101850.59;;;14.26;70.73
39823;BME280;25499;53.958;10.970;2022-07-10T07:35:02;101854.97;;;14.41;71.16
39823;BME280;25499;53.958;10.970;2022-07-10T07:37:36;101845.34;;;14.46;69.77
39823;BME280;25499;53.958;10.970;2022-07-10T07:40:03;101856.69;;;14.70;70.00
39823;BME280;25499;53.958;10.970;2022-07-10T07:42:29;101845.31;;;14.55;69.43
39823;BME280;25499;53.958;10.970;2022-07-10T07:44:54;101847.94;;;14.55;69.16
39823;BME280;25499;53.958;10.970;2022-07-10T07:47:19;101847.94;;;14.55;69.99
39823;BME280;25499;53.958;10.970;2022-07-10T07:49:44;101852.31;;;14.72;69.73
39823;BME280;25499;53.958;10.970;2022-07-10T07:52:10;101847.94;;;14.71;69.71
39823;BME280;25499;53.958;10.970;2022-07-10T07:54:35;101850.56;;;14.76;69.20
39823;BME280;25499;53.958;10.970;2022-07-10T07:57:01;101847.91;;;14.83;69.12
39823;BME280;25499;53.958;10.970;2022-07-10T07:59:26;101838.28;;;14.85;67.91
39823;BME280;25499;53.958;10.970;2022-07-10T08:01:51;101845.31;;;14.82;69.12
39823;BME280;25499;53.958;10.970;2022-07-10T08:04:17;101842.69;;;14.77;69.50
39823;BME280;25499;53.958;10.970;2022-07-10T08:06:42;101841.81;;;14.72;70.10
39823;BME280;25499;53.958;10.970;2022-07-10T08:09:07;101842.69;;;14.55;71.06
39823;BME280;25499;53.958;10.970;2022-07-10T08:11:32;101846.22;;;14.45;71.15
39823;BME280;25499;53.958;10.970;2022-07-10T08:13:58;101847.09;;;14.27;71.49
39823;BME280;25499;53.958;10.970;2022-07-10T08:16:23;101846.22;;;14.41;72.37
39823;BME280;25499;53.958;10.970;2022-07-10T08:18:49;101844.47;;;14.29;71.64
39823;BME280;25499;53.958;10.970;2022-07-10T08:21:15;101843.63;;;14.31;70.89
39823;BME280;25499;53.958;10.970;2022-07-10T08:23:40;101847.09;;;14.32;71.20
39823;BME280;25499;53.958;10.970;2022-07-10T08:26:06;101848.84;;;14.47;71.22
39823;BME280;25499;53.958;10.970;2022-07-10T08:28:31;101841.84;;;14.63;70.99
39823;BME280;25499;53.958;10.970;2022-07-10T08:30:56;101840.97;;;14.64;69.78
39823;BME280;25499;53.958;10.970;2022-07-10T08:33:22;101847.06;;;14.66;70.20
39823;BME280;25499;53.958;10.970;2022-07-10T08:35:47;101846.22;;;14.45;71.22
39823;BME280;25499;53.958;10.970;2022-07-10T08:38:12;101859.31;;;14.62;72.31
39823;BME280;25499;53.958;10.970;2022-07-10T08:40:38;101849.69;;;14.57;71.64
39823;BME280;25499;53.958;10.970;2022-07-10T08:43:04;101852.31;;;14.61;73.48
39823;BME280;25499;53.958;10.970;2022-07-10T08:45:31;101850.59;;;14.65;71.82
39823;BME280;25499;53.958;10.970;2022-07-10T08:48:01;101847.91;;;14.83;70.46
39823;BME280;25499;53.958;10.970;2022-07-10T08:50:29;101859.22;;;15.04;70.58
39823;BME280;25499;53.958;10.970;2022-07-10T08:53:18;101846.09;;;15.01;69.02
39823;BME280;25499;53.958;10.970;2022-07-10T08:55:43;101844.34;;;15.00;67.39
39823;BME280;25499;53.958;10.970;2022-07-10T08:58:10;101838.09;;;15.27;67.09
39823;BME280;25499;53.958;10.970;2022-07-10T09:00:37;101829.34;;;15.33;66.71
39823;BME280;25499;53.958;10.970;2022-07-10T09:03:02;101844.31;;;16.39;66.22
39823;BME280;25499;53.958;10.970;2022-07-10T09:05:29;101842.72;;;17.09;64.74
39823;BME280;25499;53.958;10.970;2022-07-10T09:07:55;101826.00;;;17.10;62.91
39823;BME280;25499;53.958;10.970;2022-07-10T09:10:24;101816.19;;;16.50;63.68
39823;BME280;25499;53.958;10.970;2022-07-10T09:12:52;101823.75;;;15.88;65.58
39823;BME280;25499;53.958;10.970;2022-07-10T09:15:20;101829.19;;;15.57;66.16
39823;BME280;25499;53.958;10.970;2022-07-10T09:17:58;101837.13;;;15.48;66.83
39823;BME280;25499;53.958;10.970;2022-07-10T09:20:32;101831.88;;;15.48;66.81
39823;BME280;25499;53.958;10.970;2022-07-10T09:23:20;101824.91;;;15.44;65.35
39823;BME280;25499;53.958;10.970;2022-07-10T09:25:50;101830.03;;;15.62;65.14
39823;BME280;25499;53.958;10.970;2022-07-10T09:28:18;101832.44;;;15.98;64.95
39823;BME280;25499;53.958;10.970;2022-07-10T09:30:43;101836.28;;;16.54;63.13
39823;BME280;25499;53.958;10.970;2022-07-10T09:36:14;101837.38;;;18.31;60.09
39823;BME280;25499;53.958;10.970;2022-07-10T09:43:58;101814.16;;;18.50;57.77
39823;BME280;25499;53.958;10.970;2022-07-10T09:46:31;101806.59;;;18.78;56.93
39823;BME280;25499;53.958;10.970;2022-07-10T09:49:05;101793.81;;;18.10;56.84
39823;BME280;25499;53.958;10.970;2022-07-10T09:51:33;101795.63;;;18.07;58.06
39823;BME280;25499;53.958;10.970;2022-07-10T09:54:04;101806.69;;;18.28;57.61
39823;BME280;25499;53.958;10.970;2022-07-10T09:56:33;101820.41;;;19.31;55.84
39823;BME280;25499;53.958;10.970;2022-07-10T09:59:00;101808.25;;;18.82;57.15
39823;BME280;25499;53.958;10.970;2022-07-10T10:01:27;101806.03;;;18.14;57.53
39823;BME280;25499;53.958;10.970;2022-07-10T10:03:53;101816.09;;;18.88;57.41
39823;BME280;25499;53.958;10.970;2022-07-10T10:06:19;101810.94;;;19.23;56.72
39823;BME280;25499;53.958;10.970;2022-07-10T10:11:33;101796.06;;;17.78;57.25
39823;BME280;25499;53.958;10.970;2022-07-10T10:14:01;101804.38;;;17.52;57.92
39823;BME280;25499;53.958;10.970;2022-07-10T10:16:27;101801.31;;;17.78;57.88
39823;BME280;25499;53.958;10.970;2022-07-10T10:18:55;101798.56;;;18.39;56.37
39823;BME280;25499;53.958;10.970;2022-07-10T10:21:39;101808.03;;;19.35;55.58
39823;BME280;25499;53.958;10.970;2022-07-10T10:24:05;101782.72;;;18.39;55.77
39823;BME280;25499;53.958;10.970;2022-07-10T10:26:32;101798.81;;;19.14;55.48
39823;BME280;25499;53.958;10.970;2022-07-10T10:29:00;101803.66;;;20.42;53.47
39823;BME280;25499;53.958;10.970;2022-07-10T10:31:29;101802.59;;;21.10;51.59
39823;BME280;25499;53.958;10.970;2022-07-10T10:33:56;101783.97;;;20.83;50.19
39823;BME280;25499;53.958;10.970;2022-07-10T10:39:17;101768.25;;;20.77;51.06
39823;BME280;25499;53.958;10.970;2022-07-10T10:41:49;101769.97;;;21.10;50.57
39823;BME280;25499;53.958;10.970;2022-07-10T10:49:16;101767.94;;;20.88;50.09
39823;BME280;25499;53.958;10.970;2022-07-10T10:54:28;101773.59;;;21.34;49.08
39823;BME280;25499;53.958;10.970;2022-07-10T10:59:58;101764.88;;;21.85;49.12
39823;BME280;25499;53.958;10.970;2022-07-10T11:02:33;101767.44;;;21.88;48.83
39823;BME280;25499;53.958;10.970;2022-07-10T11:13:08;101765.00;;;20.03;52.02
39823;BME280;25499;53.958;10.970;2022-07-10T11:15:41;101762.19;;;19.73;52.28
39823;BME280;25499;53.958;10.970;2022-07-10T11:18:17;101768.34;;;18.99;53.02
39823;BME280;25499;53.958;10.970;2022-07-10T11:20:45;101768.25;;;18.60;53.34
39823;BME280;25499;53.958;10.970;2022-07-10T11:23:36;101766.06;;;18.38;54.05
39823;BME280;25499;53.958;10.970;2022-07-10T11:26:10;101777.88;;;18.62;54.80
39823;BME280;25499;53.958;10.970;2022-07-10T11:28:52;101776.91;;;19.10;52.31
39823;BME280;25499;53.958;10.970;2022-07-10T11:31:22;101787.38;;;19.90;51.10
39823;BME280;25499;53.958;10.970;2022-07-10T11:33:50;101782.53;;;20.40;50.60
39823;BME280;25499;53.958;10.970;2022-07-10T11:36:24;101778.41;;;20.93;49.62
39823;BME280;25499;53.958;10.970;2022-07-10T11:39:02;101764.28;;;20.29;50.09
39823;BME280;25499;53.958;10.970;2022-07-10T11:41:28;101780.03;;;21.27;50.28
39823;BME280;25499;53.958;10.970;2022-07-10T11:44:03;101773.25;;;22.00;48.90
39823;BME280;25499;53.958;10.970;2022-07-10T11:46:31;101770.88;;;21.90;47.76
39823;BME280;25499;53.958;10.970;2022-07-10T11:48:57;101758.47;;;20.48;48.35
39823;BME280;25499;53.958;10.970;2022-07-10T11:51:27;101768.66;;;20.62;49.85
39823;BME280;25499;53.958;10.970;2022-07-10T11:56:27;101761.91;;;20.20;49.55
39823;BME280;25499;53.958;10.970;2022-07-10T11:59:13;101752.25;;;19.49;51.75
39823;BME280;25499;53.958;10.970;2022-07-10T12:01:44;101758.75;;;19.34;52.19
39823;BME280;25499;53.958;10.970;2022-07-10T12:04:10;101768.44;;;18.96;52.64
39823;BME280;25499;53.958;10.970;2022-07-10T12:06:38;101761.94;;;18.69;52.12
39823;BME280;25499;53.958;10.970;2022-07-10T12:09:06;101773.13;;;18.78;53.72
39823;BME280;25499;53.958;10.970;2022-07-10T12:11:33;101783.72;;;18.77;54.26
39823;BME280;25499;53.958;10.970;2022-07-10T12:14:23;101787.91;;;18.45;54.30
39823;BME280;25499;53.958;10.970;2022-07-10T12:16:50;101781.38;;;18.18;55.11
39823;BME280;25499;53.958;10.970;2022-07-10T12:19:27;101786.56;;;18.21;55.86
39823;BME280;25499;53.958;10.970;2022-07-10T12:21:58;101796.66;;;18.47;54.05
39823;BME280;25499;53.958;10.970;2022-07-10T12:24:25;101789.78;;;18.83;53.58
39823;BME280;25499;53.958;10.970;2022-07-10T12:26:52;101803.00;;;19.23;52.97
39823;BME280;25499;53.958;10.970;2022-07-10T12:31:43;101791.81;;;19.52;53.25
39823;BME280;25499;53.958;10.970;2022-07-10T12:34:09;101795.09;;;19.60;52.89
39823;BME280;25499;53.958;10.970;2022-07-10T12:36:48;101781.78;;;19.27;51.73
39823;BME280;25499;53.958;10.970;2022-07-10T12:54:48;101807.38;;;18.83;55.43
39823;BME280;25499;53.958;10.970;2022-07-10T12:57:14;101809.25;;;19.20;54.36
39823;BME280;25499;53.958;10.970;2022-07-10T12:59:39;101810.44;;;19.46;53.50
39823;BME280;25499;53.958;10.970;2022-07-10T13:02:21;101806.53;;;19.62;53.53
39823;BME280;25499;53.958;10.970;2022-07-10T13:04:54;101802.72;;;19.74;52.71
39823;BME280;25499;53.958;10.970;2022-07-10T13:07:28;101807.88;;;19.80;52.81
39823;BME280;25499;53.958;10.970;2022-07-10T13:09:54;101792.25;;;19.69;52.37
39823;BME280;25499;53.958;10.970;2022-07-10T13:12:19;101799.56;;;19.58;53.52
39823;BME280;25499;53.958;10.970;2022-07-10T13:14:44;101790.28;;;19.03;54.30
39823;BME280;25499;53.958;10.970;2022-07-10T13:17:10;101800.84;;;18.57;55.57
39823;BME280;25499;53.958;10.970;2022-07-10T13:19:35;101791.41;;;18.44;55.66
39823;BME280;25499;53.958;10.970;2022-07-10T13:22:00;101806.09;;;18.59;56.21
39823;BME280;25499;53.958;10.970;2022-07-10T13:24:26;101807.38;;;18.83;56.39
39823;BME280;25499;53.958;10.970;2022-07-10T13:26:53;101804.56;;;18.47;55.78
39823;BME280;25499;53.958;10.970;2022-07-10T13:29:20;101817.59;;;18.53;56.35
39823;BME280;25499;53.958;10.970;2022-07-10T13:31:46;101804.31;;;18.59;56.01
39823;BME280;25499;53.958;10.970;2022-07-10T13:34:11;101817.81;;;18.91;56.22
39823;BME280;25499;53.958;10.970;2022-07-10T13:36:36;101810.78;;;18.90;55.75
39823;BME280;25499;53.958;10.970;2022-07-10T13:39:02;101804.63;;;18.42;54.61
39823;BME280;25499;53.958;10.970;2022-07-10T13:41:27;101809.06;;;18.42;55.94
39823;BME280;25499;53.958;10.970;2022-07-10T13:43:52;101812.53;;;18.44;55.86
39823;BME280;25499;53.958;10.970;2022-07-10T13:46:18;101817.06;;;18.81;55.76
39823;BME280;25499;53.958;10.970;2022-07-10T13:48:43;101820.13;;;19.06;55.66
39823;BME280;25499;53.958;10.970;2022-07-10T13:51:09;101804.84;;;19.19;55.62
39823;BME280;25499;53.958;10.970;2022-07-10T13:53:35;101803.69;;;18.92;56.28
39823;BME280;25499;53.958;10.970;2022-07-10T13:56:02;101808.84;;;18.51;55.97
39823;BME280;25499;53.958;10.970;2022-07-10T13:58:29;101804.69;;;18.39;56.71
39823;BME280;25499;53.958;10.970;2022-07-10T14:00:54;101804.66;;;18.41;57.64
39823;BME280;25499;53.958;10.970;2022-07-10T14:03:19;101806.50;;;18.37;56.80
39823;BME280;25499;53.958;10.970;2022-07-10T14:05:45;101809.34;;;18.70;57.08
39823;BME280;25499;53.958;10.970;2022-07-10T14:08:10;101806.28;;;18.93;56.80
39823;BME280;25499;53.958;10.970;2022-07-10T14:10:35;101810.91;;;19.24;56.40
39823;BME280;25499;53.958;10.970;2022-07-10T14:13:01;101797.72;;;19.23;55.86
39823;BME280;25499;53.958;10.970;2022-07-10T14:15:27;101809.56;;;19.45;56.63
39823;BME280;25499;53.958;10.970;2022-07-10T14:17:53;101815.28;;;19.64;56.86
39823;BME280;25499;53.958;10.970;2022-07-10T14:20:20;101809.00;;;19.68;56.15
39823;BME280;25499;53.958;10.970;2022-07-10T14:22:45;101803.63;;;19.35;56.05
39823;BME280;25499;53.958;10.970;2022-07-10T14:25:12;101801.13;;;19.28;55.46
39823;BME280;25499;53.958;10.970;2022-07-10T14:27:37;101810.19;;;19.55;56.28
39823;BME280;25499;53.958;10.970;2022-07-10T14:30:04;101806.25;;;19.35;56.36
39823;BME280;25499;53.958;10.970;2022-07-10T14:32:30;101795.69;;;18.96;55.95
39823;BME280;25499;53.958;10.970;2022-07-10T14:34:55;101806.56;;;18.79;57.54
39823;BME280;25499;53.958;10.970;2022-07-10T14:37:21;101807.13;;;18.95;58.19
39823;BME280;25499;53.958;10.970;2022-07-10T14:39:47;101808.16;;;19.29;57.85
39823;BME280;25499;53.958;10.970;2022-07-10T14:42:13;101814.59;;;19.56;56.83
39823;BME280;25499;53.958;10.970;2022-07-10T14:44:38;101793.69;;;19.08;56.90
39823;BME280;25499;53.958;10.970;2022-07-10T14:47:04;101802.06;;;18.86;58.34
39823;BME280;25499;53.958;10.970;2022-07-10T14:49:29;101805.47;;;18.91;58.24
39823;BME280;25499;53.958;10.970;2022-07-10T14:51:54;101816.03;;;19.32;58.62
39823;BME280;25499;53.958;10.970;2022-07-10T14:54:20;101815.47;;;19.55;58.70
39823;BME280;25499;53.958;10.970;2022-07-10T14:56:46;101811.47;;;19.78;58.02
39823;BME280;25499;53.958;10.970;2022-07-10T14:59:11;101806.75;;;19.89;57.29
39823;BME280;25499;53.958;10.970;2022-07-10T15:01:36;101804.63;;;19.30;57.52
39823;BME280;25499;53.958;10.970;2022-07-10T15:04:01;101800.91;;;18.99;57.92
39823;BME280;25499;53.958;10.970;2022-07-10T15:06:27;101805.91;;;19.12;58.62
39823;BME280;25499;53.958;10.970;2022-07-10T15:08:52;101815.41;;;19.58;58.10
39823;BME280;25499;53.958;10.970;2022-07-10T15:11:18;101807.16;;;19.72;57.25
39823;BME280;25499;53.958;10.970;2022-07-10T15:13:47;101808.44;;;19.93;56.86
39823;BME280;25499;53.958;10.970;2022-07-10T15:16:12;101800.53;;;19.91;56.69
39823;BME280;25499;53.958;10.970;2022-07-10T15:18:38;101808.09;;;20.07;57.06
39823;BME280;25499;53.958;10.970;2022-07-10T15:21:03;101792.09;;;19.77;56.41
39823;BME280;25499;53.958;10.970;2022-07-10T15:23:29;101797.25;;;19.82;56.08
39823;BME280;25499;53.958;10.970;2022-07-10T15:25:54;101788.50;;;19.42;56.62
39823;BME280;25499;53.958;10.970;2022-07-10T15:28:19;101784.25;;;18.96;58.58
39823;BME280;25499;53.958;10.970;2022-07-10T15:30:45;101783.88;;;18.71;58.98
39823;BME280;25499;53.958;10.970;2022-07-10T15:33:10;101792.75;;;18.65;60.22
39823;BME280;25499;53.958;10.970;2022-07-10T15:35:35;101788.44;;;18.62;60.30
39823;BME280;25499;53.958;10.970;2022-07-10T15:38:01;101794.69;;;19.00;59.11
39823;BME280;25499;53.958;10.970;2022-07-10T15:40:28;101786.97;;;18.93;58.21
39823;BME280;25499;53.958;10.970;2022-07-10T15:42:53;101794.13;;;18.86;58.76
39823;BME280;25499;53.958;10.970;2022-07-10T15:45:19;101788.22;;;18.72;59.13
39823;BME280;25499;53.958;10.970;2022-07-10T15:47:44;101786.91;;;18.51;60.30
39823;BME280;25499;53.958;10.970;2022-07-10T15:50:10;101780.88;;;18.44;60.08
39823;BME280;25499;53.958;10.970;2022-07-10T15:52:35;101786.78;;;18.57;60.43
39823;BME280;25499;53.958;10.970;2022-07-10T15:55:00;101791.56;;;18.81;60.24
39823;BME280;25499;53.958;10.970;2022-07-10T15:57:26;101788.31;;;19.11;59.19
39823;BME280;25499;53.958;10.970;2022-07-10T15:59:51;101784.81;;;19.10;58.88
39823;BME280;25499;53.958;10.970;2022-07-10T16:02:16;101786.38;;;19.19;59.58
39823;BME280;25499;53.958;10.970;2022-07-10T16:04:42;101786.41;;;19.17;59.20
39823;BME280;25499;53.958;10.970;2022-07-10T16:07:07;101779.03;;;18.93;59.17
39823;BME280;25499;53.958;10.970;2022-07-10T16:09:33;101780.72;;;18.95;59.52
39823;BME280;25499;53.958;10.970;2022-07-10T16:11:58;101777.56;;;18.78;59.38
39823;BME280;25499;53.958;10.970;2022-07-10T16:14:24;101767.34;;;18.61;60.17
39823;BME280;25499;53.958;10.970;2022-07-10T16:16:49;101772.00;;;18.48;61.08
39823;BME280;25499;53.958;10.970;2022-07-10T16:19:15;101777.97;;;18.58;61.20
39823;BME280;25499;53.958;10.970;2022-07-10T16:21:41;101777.66;;;18.73;60.96
39823;BME280;25499;53.958;10.970;2022-07-10T16:24:06;101777.50;;;18.81;60.94
39823;BME280;25499;53.958;10.970;2022-07-10T16:26:32;101777.91;;;18.61;60.36
39823;BME280;25499;53.958;10.970;2022-07-10T16:28:58;101776.94;;;18.65;61.22
39823;BME280;25499;53.958;10.970;2022-07-10T16:31:24;101776.19;;;18.58;61.48
39823;BME280;25499;53.958;10.970;2022-07-10T16:33:49;101779.63;;;18.63;61.62
39823;BME280;25499;53.958;10.970;2022-07-10T16:36:15;101772.88;;;18.49;60.83
39823;BME280;25499;53.958;10.970;2022-07-10T16:38:40;101779.72;;;18.59;61.57
39823;BME280;25499;53.958;10.970;2022-07-10T16:41:06;101773.00;;;18.41;60.41
39823;BME280;25499;53.958;10.970;2022-07-10T16:43:31;101772.63;;;18.14;60.92
39823;BME280;25499;53.958;10.970;2022-07-10T16:46:00;101771.63;;;18.23;61.79
39823;BME280;25499;53.958;10.970;2022-07-10T16:48:26;101776.66;;;18.35;61.78
39823;BME280;25499;53.958;10.970;2022-07-10T16:50:52;101775.88;;;18.30;61.50
39823;BME280;25499;53.958;10.970;2022-07-10T16:53:18;101780.16;;;18.36;62.69
39823;BME280;25499;53.958;10.970;2022-07-10T16:55:44;101782.97;;;18.26;61.97
39823;BME280;25499;53.958;10.970;2022-07-10T16:58:10;101773.38;;;18.21;62.49
39823;BME280;25499;53.958;10.970;2022-07-10T17:00:35;101764.28;;;17.91;61.78
39823;BME280;25499;53.958;10.970;2022-07-10T17:03:01;101772.31;;;17.81;62.53
39823;BME280;25499;53.958;10.970;2022-07-10T17:05:28;101781.06;;;17.82;63.60
39823;BME280;25499;53.958;10.970;2022-07-10T17:07:53;101779.22;;;17.88;63.13
39823;BME280;25499;53.958;10.970;2022-07-10T17:10:18;101783.63;;;17.89;63.29
39823;BME280;25499;53.958;10.970;2022-07-10T17:12:44;101770.28;;;17.97;62.92
39823;BME280;25499;53.958;10.970;2022-07-10T17:15:10;101770.19;;;18.03;62.67
39823;BME280;25499;53.958;10.970;2022-07-10T17:17:35;101775.25;;;18.16;62.87
39823;BME280;25499;53.958;10.970;2022-07-10T17:20:02;101768.41;;;18.04;62.43
39823;BME280;25499;53.958;10.970;2022-07-10T17:22:28;101776.22;;;18.10;62.85
39823;BME280;25499;53.958;10.970;2022-07-10T17:24:53;101776.31;;;18.04;63.13
39823;BME280;25499;53.958;10.970;2022-07-10T17:27:19;101769.63;;;17.84;63.15
39823;BME280;25499;53.958;10.970;2022-07-10T17:29:45;101773.38;;;17.69;62.83
39823;BME280;25499;53.958;10.970;2022-07-10T17:32:12;101783.88;;;17.71;63.12
39823;BME280;25499;53.958;10.970;2022-07-10T17:34:38;101784.81;;;17.68;63.47
39823;BME280;25499;53.958;10.970;2022-07-10T17:37:04;101771.16;;;17.45;63.37
39823;BME280;25499;53.958;10.970;2022-07-10T17:39:29;101779.94;;;17.44;64.21
39823;BME280;25499;53.958;10.970;2022-07-10T17:41:55;101787.81;;;17.45;64.08
39823;BME280;25499;53.958;10.970;2022-07-10T17:44:21;101785.19;;;17.45;63.46
39823;BME280;25499;53.958;10.970;2022-07-10T17:46:47;101786.78;;;17.56;63.40
39823;BME280;25499;53.958;10.970;2022-07-10T17:49:12;101788.59;;;17.52;64.01
39823;BME280;25499;53.958;10.970;2022-07-10T17:51:38;101780.72;;;17.50;63.58
39823;BME280;25499;53.958;10.970;2022-07-10T17:54:03;101789.38;;;17.57;64.71
39823;BME280;25499;53.958;10.970;2022-07-10T17:56:28;101788.81;;;17.38;63.94
39823;BME280;25499;53.958;10.970;2022-07-10T17:58:54;101787.09;;;17.34;64.60
39823;BME280;25499;53.958;10.970;2022-07-10T18:01:19;101802.81;;;17.40;64.75
39823;BME280;25499;53.958;10.970;2022-07-10T18:03:45;101797.59;;;17.36;64.61
39823;BME280;25499;53.958;10.970;2022-07-10T18:06:10;101789.03;;;17.23;65.04
39823;BME280;25499;53.958;10.970;2022-07-10T18:08:36;101800.59;;;17.09;65.09
39823;BME280;25499;53.958;10.970;2022-07-10T18:11:02;101796.34;;;17.01;65.26
39823;BME280;25499;53.958;10.970;2022-07-10T18:13:31;101798.19;;;16.92;64.66
39823;BME280;25499;53.958;10.970;2022-07-10T18:15:56;101804.22;;;17.01;64.77
39823;BME280;25499;53.958;10.970;2022-07-10T18:18:53;101799.94;;;16.90;65.65
39823;BME280;25499;53.958;10.970;2022-07-10T18:21:20;101812.00;;;17.10;65.15
39823;BME280;25499;53.958;10.970;2022-07-10T18:23:46;101806.06;;;16.94;65.24
39823;BME280;25499;53.958;10.970;2022-07-10T18:26:12;101804.41;;;16.84;65.21
39823;BME280;25499;53.958;10.970;2022-07-10T18:28:38;101821.06;;;16.86;65.98
39823;BME280;25499;53.958;10.970;2022-07-10T18:31:09;101828.94;;;16.89;66.66
39823;BME280;25499;53.958;10.970;2022-07-10T18:33:35;101820.19;;;16.84;66.55
39823;BME280;25499;53.958;10.970;2022-07-10T18:36:20;101819.28;;;16.88;66.73
39823;BME280;25499;53.958;10.970;2022-07-10T18:38:45;101818.50;;;16.76;66.84
39823;BME280;25499;53.958;10.970;2022-07-10T18:41:11;101815.97;;;16.70;66.73
39823;BME280;25499;53.958;10.970;2022-07-10T18:43:36;101822.00;;;16.78;66.55
39823;BME280;25499;53.958;10.970;2022-07-10T18:46:02;101819.50;;;16.65;66.82
39823;BME280;25499;53.958;10.970;2022-07-10T18:48:28;101824.69;;;16.74;66.87
39823;BME280;25499;53.958;10.970;2022-07-10T18:50:57;101817.94;;;16.50;67.98
39823;BME280;25499;53.958;10.970;2022-07-10T18:53:25;101819.59;;;16.58;68.02
39823;BME280;25499;53.958;10.970;2022-07-10T18:55:51;101817.97;;;16.48;68.08
39823;BME280;25499;53.958;10.970;2022-07-10T18:58:16;101819.81;;;16.35;68.47
39823;BME280;25499;53.958;10.970;2022-07-10T19:00:42;101825.94;;;16.34;68.46
39823;BME280;25499;53.958;10.970;2022-07-10T19:03:07;101822.50;;;16.29;68.86
39823;BME280;25499;53.958;10.970;2022-07-10T19:05:33;101830.53;;;16.14;68.81
39823;BME280;25499;53.958;10.970;2022-07-10T19:07:59;101839.38;;;16.02;69.51
39823;BME280;25499;53.958;10.970;2022-07-10T19:10:25;101839.44;;;15.99;69.70
39823;BME280;25499;53.958;10.970;2022-07-10T19:12:50;101840.22;;;16.09;69.22
39823;BME280;25499;53.958;10.970;2022-07-10T19:15:16;101844.53;;;16.17;69.22
39823;BME280;25499;53.958;10.970;2022-07-10T19:17:41;101847.19;;;16.13;69.51
39823;BME280;25499;53.958;10.970;2022-07-10T19:20:08;101838.63;;;15.89;69.67
39823;BME280;25499;53.958;10.970;2022-07-10T19:22:37;101844.81;;;15.82;70.30
39823;BME280;25499;53.958;10.970;2022-07-10T19:25:02;101845.72;;;15.72;70.34
39823;BME280;25499;53.958;10.970;2022-07-10T19:27:27;101853.59;;;15.78;70.08
39823;BME280;25499;53.958;10.970;2022-07-10T19:29:53;101851.09;;;15.53;70.29